createdAt,value
2022-10-05T00:00:10.107Z,9.5
2022-10-05T00:05:10.210Z,9.5
2022-10-05T00:10:10.095Z,9.3
2022-10-05T00:15:10.115Z,9.1
2022-10-05T00:20:10.098Z,9.1
2022-10-05T00:25:10.101Z,8.6
2022-10-05T00:30:10.113Z,8.3
2022-10-05T00:35:10.116Z,8.1
2022-10-05T00:40:10.103Z,8.2
2022-10-05T00:45:10.125Z,8.1
2022-10-05T00:50:10.091Z,8
2022-10-05T00:55:10.106Z,8
2022-10-05T01:00:10.105Z,7.8
2022-10-05T01:05:10.098Z,7.8
2022-10-05T01:10:10.094Z,7.8
2022-10-05T01:15:10.111Z,7.7
2022-10-05T01:20:10.106Z,7.6
2022-10-05T01:25:10.101Z,7.6
2022-10-05T01:30:10.118Z,7.6
2022-10-05T01:35:10.096Z,7.5
2022-10-05T01:40:10.100Z,7.5
2022-10-05T01:45:10.127Z,7.1
2022-10-05T01:50:10.104Z,7.1
2022-10-05T01:55:10.111Z,7
2022-10-05T02:00:10.112Z,7
2022-10-05T02:05:10.096Z,7
2022-10-05T02:10:10.100Z,7.1
2022-10-05T02:15:10.129Z,7.1
2022-10-05T02:20:10.095Z,7.2
2022-10-05T02:25:10.102Z,7.1
2022-10-05T02:30:14.190Z,7.1
2022-10-05T02:35:10.099Z,7.1
2022-10-05T02:40:10.100Z,7.1
2022-10-05T02:45:10.119Z,7.2
2022-10-05T02:50:10.105Z,7.1
2022-10-05T02:55:10.099Z,7.2
2022-10-05T03:00:10.125Z,7
2022-10-05T03:05:10.106Z,6.9
2022-10-05T03:10:10.105Z,6.8
2022-10-05T03:15:10.124Z,6.7
2022-10-05T03:20:10.099Z,6.7
2022-10-05T03:25:10.094Z,6.8
2022-10-05T03:30:10.140Z,6.8
2022-10-05T03:35:10.097Z,6.6
2022-10-05T03:40:10.093Z,6.4
2022-10-05T03:45:10.122Z,6.2
2022-10-05T03:50:10.097Z,6
2022-10-05T03:55:10.099Z,6
2022-10-05T04:00:10.108Z,6.3
2022-10-05T04:05:10.112Z,6.2
2022-10-05T04:10:10.103Z,6.4
2022-10-05T04:15:10.120Z,6.4
2022-10-05T04:20:10.097Z,6.4
2022-10-05T04:25:10.095Z,6.4
2022-10-05T04:30:10.111Z,6.4
2022-10-05T04:35:10.100Z,6.4
2022-10-05T04:40:10.090Z,6.4
2022-10-05T04:45:10.108Z,6.6
2022-10-05T04:50:10.096Z,6.5
2022-10-05T04:55:10.106Z,6.5
2022-10-05T05:00:10.126Z,6.5
2022-10-05T05:05:10.111Z,6.5
2022-10-05T05:10:10.096Z,6.4
2022-10-05T05:15:10.137Z,6.3
2022-10-05T05:20:10.099Z,6.3
2022-10-05T05:25:10.107Z,6.2
2022-10-05T05:30:10.108Z,6.3
2022-10-05T05:35:10.106Z,6.2
2022-10-05T05:40:10.094Z,6.1
2022-10-05T05:45:10.122Z,6.1
2022-10-05T05:50:10.091Z,6.1
2022-10-05T05:55:10.147Z,6.2
2022-10-05T06:00:10.128Z,6.4
2022-10-05T06:05:10.107Z,6.7
2022-10-05T06:10:10.096Z,6.9
2022-10-05T06:15:10.125Z,7.4
2022-10-05T06:20:10.090Z,7.7
2022-10-05T06:25:10.099Z,7.8
2022-10-05T06:30:10.104Z,7.9
2022-10-05T06:35:10.097Z,8
2022-10-05T06:40:10.095Z,8.1
2022-10-05T06:45:10.127Z,8.1
2022-10-05T06:50:10.098Z,8.2
2022-10-05T06:55:13.974Z,8.5
2022-10-05T07:00:10.117Z,8.7
2022-10-05T07:05:10.108Z,9
2022-10-05T07:10:10.105Z,9.4
2022-10-05T07:15:10.104Z,9.7
2022-10-05T07:20:10.098Z,10.2
2022-10-05T07:25:10.102Z,10.3
2022-10-05T07:30:10.117Z,10.4
2022-10-05T07:35:10.110Z,10.5
2022-10-05T07:40:10.095Z,10.7
2022-10-05T07:45:10.120Z,10.8
2022-10-05T07:50:10.094Z,10.7
2022-10-05T07:55:10.103Z,10.7
2022-10-05T08:00:10.100Z,10.7
2022-10-05T08:05:10.101Z,10.8
2022-10-05T08:10:10.098Z,11.1
2022-10-05T08:15:10.119Z,11.5
2022-10-05T08:20:10.093Z,11.9
2022-10-05T08:25:10.109Z,12.1
2022-10-05T08:30:10.112Z,12.4
2022-10-05T08:35:10.103Z,12.7
2022-10-05T08:40:10.095Z,12.7
2022-10-05T08:45:10.117Z,12.7
2022-10-05T08:50:10.094Z,13.4
2022-10-05T08:55:10.104Z,13.5
2022-10-05T09:00:10.110Z,13.7
2022-10-05T09:05:10.100Z,14.1
2022-10-05T09:10:10.108Z,14.4
2022-10-05T09:15:26.610Z,14.6
2022-10-05T09:20:10.108Z,14.8
2022-10-05T09:25:10.108Z,15
2022-10-05T09:30:10.138Z,15.4
2022-10-05T09:35:10.104Z,15.6
2022-10-05T09:40:10.129Z,15.5
2022-10-05T09:45:10.114Z,15.3
2022-10-05T09:50:10.145Z,15.5
2022-10-05T09:55:10.106Z,15.6
2022-10-05T10:00:10.173Z,15.8
2022-10-05T10:05:10.109Z,16.3
2022-10-05T10:10:10.281Z,16.2
2022-10-05T10:15:10.124Z,16.5
2022-10-05T10:20:10.110Z,16.5
2022-10-05T10:25:10.106Z,16.7
2022-10-05T10:30:10.113Z,16.7
2022-10-05T10:35:10.102Z,16.7
2022-10-05T10:40:10.098Z,16.7
2022-10-05T10:45:10.118Z,16.8
2022-10-05T10:50:10.110Z,17
2022-10-05T10:55:10.112Z,17.1
2022-10-05T11:00:10.115Z,17.6
2022-10-05T11:05:10.107Z,17.6
2022-10-05T11:10:10.093Z,17.8
2022-10-05T11:15:10.113Z,18
2022-10-05T11:20:10.098Z,18.3
2022-10-05T11:25:10.095Z,18.2
2022-10-05T11:30:10.113Z,18.3
2022-10-05T11:35:10.103Z,18.4
2022-10-05T11:40:10.095Z,18.3
2022-10-05T11:45:10.117Z,18.2
2022-10-05T11:50:10.092Z,18.5
2022-10-05T11:55:11.578Z,18.3
2022-10-05T12:00:10.121Z,18.5
2022-10-05T12:05:10.095Z,18.3
2022-10-05T12:10:10.099Z,18.7
2022-10-05T12:15:10.116Z,18.5
2022-10-05T12:20:10.111Z,18.7
2022-10-05T12:25:10.113Z,19
2022-10-05T12:30:10.107Z,18.8
2022-10-05T12:35:10.100Z,19.1
2022-10-05T12:40:10.093Z,19.1
2022-10-05T12:45:10.112Z,19.1
2022-10-05T12:50:10.105Z,18.9
2022-10-05T12:55:10.097Z,19.2
2022-10-05T13:00:10.216Z,19.2
2022-10-05T13:05:10.120Z,19
2022-10-05T13:10:10.099Z,19.1
2022-10-05T13:15:10.123Z,19.2
2022-10-05T13:20:10.103Z,19.1
2022-10-05T13:25:10.111Z,19.2
2022-10-05T13:30:10.114Z,19.4
2022-10-05T13:35:11.582Z,19.3
2022-10-05T13:40:10.096Z,19.2
2022-10-05T13:45:10.194Z,19.3
2022-10-05T13:50:10.153Z,19.5
2022-10-05T13:55:10.103Z,19.6
2022-10-05T14:00:10.150Z,19.6
2022-10-05T14:05:10.107Z,19.6
2022-10-05T14:10:10.156Z,19.6
2022-10-05T14:15:10.120Z,19.7
2022-10-05T14:20:10.187Z,19.7
2022-10-05T14:25:10.107Z,19.8
2022-10-05T14:30:10.213Z,19.8
2022-10-05T14:35:10.111Z,19.9
2022-10-05T14:40:10.095Z,20
2022-10-05T14:45:10.121Z,20.1
2022-10-05T14:50:10.111Z,20.2
2022-10-05T14:55:10.094Z,20.1
2022-10-05T15:00:10.108Z,20.2
2022-10-05T15:05:10.110Z,20
2022-10-05T15:10:10.092Z,20
2022-10-05T15:15:10.112Z,19.9
2022-10-05T15:20:10.104Z,19.8
2022-10-05T15:25:10.097Z,19.7
2022-10-05T15:30:10.115Z,19.7
2022-10-05T15:35:10.113Z,19.7
2022-10-05T15:40:10.090Z,19.7
2022-10-05T15:45:10.128Z,19.6
2022-10-05T15:50:10.097Z,19.4
2022-10-05T15:55:10.101Z,19.4
2022-10-05T16:00:10.111Z,19.4
2022-10-05T16:05:10.106Z,19.4
2022-10-05T16:10:10.094Z,19.2
2022-10-05T16:15:10.120Z,19.2
2022-10-05T16:20:10.095Z,19
2022-10-05T16:25:10.105Z,18.9
2022-10-05T16:30:10.117Z,18.9
2022-10-05T16:35:10.103Z,18.9
2022-10-05T16:40:10.105Z,18.6
2022-10-05T16:45:10.111Z,18.2
2022-10-05T16:50:10.096Z,17.8
2022-10-05T16:55:10.099Z,17.8
2022-10-05T17:00:15.007Z,17.7
2022-10-05T17:05:10.109Z,17.5
2022-10-05T17:10:10.087Z,17.5
2022-10-05T17:15:10.113Z,17.4
2022-10-05T17:20:10.089Z,17.4
2022-10-05T17:25:10.095Z,17.3
2022-10-05T17:30:10.103Z,17
2022-10-05T17:35:11.904Z,16.8
2022-10-05T17:40:10.105Z,16.8
2022-10-05T17:45:10.117Z,16
2022-10-05T17:50:10.102Z,15.5
2022-10-05T17:55:10.105Z,15.3
2022-10-05T18:00:10.110Z,15
2022-10-05T18:05:10.099Z,14.7
2022-10-05T18:10:10.093Z,14.4
2022-10-05T18:15:10.125Z,14.3
2022-10-05T18:20:10.105Z,14.1
2022-10-05T18:25:10.110Z,14.1
2022-10-05T18:30:10.117Z,14.3
2022-10-05T18:35:10.107Z,15
2022-10-05T18:40:10.102Z,15.3
2022-10-05T18:45:10.130Z,15.3
2022-10-05T18:50:10.113Z,15.5
2022-10-05T18:55:10.101Z,15.7
2022-10-05T19:00:10.116Z,15.8
2022-10-05T19:05:23.737Z,15.8
2022-10-05T19:10:10.107Z,15.6
2022-10-05T19:15:10.131Z,15.5
2022-10-05T19:20:10.104Z,15.3
2022-10-05T19:25:10.098Z,15.1
2022-10-05T19:30:10.127Z,15
2022-10-05T19:35:10.120Z,14.9
2022-10-05T19:40:10.149Z,14.8
2022-10-05T19:45:10.106Z,14.8
2022-10-05T19:50:10.093Z,15
2022-10-05T19:55:10.102Z,15
2022-10-05T20:00:10.106Z,15
2022-10-05T20:05:10.111Z,15.1
2022-10-05T20:10:10.099Z,15.1
2022-10-05T20:15:10.111Z,15
2022-10-05T20:20:10.094Z,15
2022-10-05T20:25:10.098Z,14.8
2022-10-05T20:30:10.122Z,14.9
2022-10-05T20:35:10.106Z,14.9
2022-10-05T20:40:10.109Z,14.9
2022-10-05T20:45:10.113Z,15
2022-10-05T20:50:10.131Z,14.9
2022-10-05T20:55:10.108Z,14.9
2022-10-05T21:00:10.111Z,14.9
2022-10-05T21:05:10.219Z,14.9
2022-10-05T21:10:10.118Z,14.9
2022-10-05T21:15:10.144Z,14.8
2022-10-05T21:20:10.088Z,14.7
2022-10-05T21:25:10.100Z,14.7
2022-10-05T21:30:10.110Z,14.5
2022-10-05T21:35:10.100Z,14.6
2022-10-05T21:40:10.095Z,14.7
2022-10-05T21:45:10.113Z,14.7
2022-10-05T21:50:10.114Z,14.6
2022-10-05T21:55:10.104Z,14.6
2022-10-05T22:00:10.127Z,14.6
2022-10-05T22:05:10.123Z,14.5
2022-10-05T22:10:10.112Z,14.4
2022-10-05T22:15:10.122Z,14.4
2022-10-05T22:20:10.123Z,14.3
2022-10-05T22:25:10.110Z,14.1
2022-10-05T22:30:10.128Z,14
2022-10-05T22:35:11.616Z,14.2
2022-10-05T22:40:10.120Z,14.4
2022-10-05T22:45:10.129Z,14.5
2022-10-05T22:50:10.112Z,14.4
2022-10-05T22:55:10.132Z,14.2
2022-10-05T23:00:10.124Z,14.3
2022-10-05T23:05:10.113Z,14.3
2022-10-05T23:10:10.097Z,14.2
2022-10-05T23:15:10.125Z,14.2
2022-10-05T23:20:10.093Z,14
2022-10-05T23:25:10.113Z,13.8
2022-10-05T23:30:10.124Z,13.7
2022-10-05T23:35:10.110Z,13.8
2022-10-05T23:40:10.090Z,13.9
2022-10-05T23:45:10.125Z,14.1
2022-10-05T23:50:10.105Z,14.2
2022-10-05T23:55:10.094Z,13.9
